createdAt,value
2023-04-02T00:01:26.799Z,99507.60
2023-04-02T00:06:45.125Z,99511.00
2023-04-02T00:11:48.595Z,99518.20
2023-04-02T00:16:48.824Z,99522.80
2023-04-02T00:21:50.839Z,99529.80
2023-04-02T00:26:52.419Z,99533.40
2023-04-02T00:31:55.298Z,99535.20
2023-04-02T00:36:55.497Z,99537.40
2023-04-02T00:42:05.298Z,99539.40
2023-04-02T00:47:15.344Z,99542.00
2023-04-02T00:52:18.544Z,99544.00
2023-04-02T00:57:25.625Z,99554.00
2023-04-02T01:02:34.227Z,99554.80
2023-04-02T01:07:55.058Z,99558.80
2023-04-02T01:13:07.010Z,99562.40
2023-04-02T01:18:31.504Z,99572.60
2023-04-02T01:23:37.621Z,99571.40
2023-04-02T01:29:06.977Z,99575.00
2023-04-02T01:34:13.067Z,99580.60
2023-04-02T01:39:26.127Z,99584.20
2023-04-02T01:44:34.593Z,99588.20
2023-04-02T01:49:34.408Z,99593.60
2023-04-02T01:54:34.803Z,99598.20
2023-04-02T01:59:36.091Z,99606.20
2023-04-02T02:04:37.758Z,99609.20
2023-04-02T02:09:41.460Z,99607.20
2023-04-02T02:14:41.650Z,99616.60
2023-04-02T02:19:45.607Z,99620.00
2023-04-02T02:24:45.759Z,99623.20
2023-04-02T02:29:48.297Z,99632.60
2023-04-02T02:34:56.136Z,99636.20
2023-04-02T02:40:01.229Z,99634.80
2023-04-02T02:45:06.719Z,99635.80
2023-04-02T02:50:15.303Z,99641.80
2023-04-02T02:55:19.724Z,99648.40
2023-04-02T03:00:33.841Z,99650.20
2023-04-02T03:05:33.768Z,99648.40
2023-04-02T03:10:50.179Z,99655.60
2023-04-02T03:16:01.440Z,99664.60
2023-04-02T03:21:08.607Z,99664.40
2023-04-02T03:26:18.338Z,99671.00
2023-04-02T03:31:26.718Z,99679.80
2023-04-02T03:36:32.649Z,99682.60
2023-04-02T03:41:40.878Z,99695.20
2023-04-02T03:46:51.099Z,99700.60
2023-04-02T03:52:00.319Z,99708.60
2023-04-02T03:57:00.660Z,99719.60
2023-04-02T04:02:11.932Z,99721.60
2023-04-02T04:07:21.441Z,99732.60
2023-04-02T04:12:32.434Z,99743.00
2023-04-02T04:17:41.142Z,99747.60
2023-04-02T04:22:40.970Z,99754.80
2023-04-02T04:28:18.606Z,99758.40
2023-04-02T04:33:23.829Z,99762.80
2023-04-02T04:38:35.142Z,99769.60
2023-04-02T04:43:46.873Z,99782.40
2023-04-02T04:48:59.787Z,99790.60
2023-04-02T04:54:02.059Z,99794.60
2023-04-02T04:59:14.226Z,99797.40
2023-04-02T05:04:23.510Z,99807.00
2023-04-02T05:09:30.244Z,99818.60
2023-04-02T05:14:38.315Z,99832.20
2023-04-02T05:19:46.704Z,99832.40
2023-04-02T05:25:10.853Z,99832.60
2023-04-02T05:30:36.821Z,99825.40
2023-04-02T05:35:43.010Z,99836.40
2023-04-02T05:40:48.339Z,99853.00
2023-04-02T05:45:56.806Z,99856.40
2023-04-02T05:51:00.378Z,99861.80
2023-04-02T05:56:09.144Z,99864.80
2023-04-02T06:01:20.956Z,99879.00
2023-04-02T06:06:37.318Z,99886.00
2023-04-02T06:11:42.452Z,99903.80
2023-04-02T06:16:44.990Z,99914.20
2023-04-02T06:21:52.171Z,99905.20
2023-04-02T06:27:01.544Z,99913.00
2023-04-02T06:32:03.632Z,99923.40
2023-04-02T06:37:06.495Z,99937.80
2023-04-02T06:42:14.166Z,99939.80
2023-04-02T06:47:39.017Z,99945.20
2023-04-02T06:52:46.180Z,99955.80
2023-04-02T06:57:46.323Z,99959.40
2023-04-02T07:02:46.712Z,99963.80
2023-04-02T07:07:46.217Z,99972.80
2023-04-02T07:12:47.925Z,99970.60
2023-04-02T07:17:48.397Z,99974.80
2023-04-02T07:22:47.535Z,99976.00
2023-04-02T07:27:47.249Z,99986.60
2023-04-02T07:32:48.240Z,99995.80
2023-04-02T07:37:47.642Z,99997.60
2023-04-02T07:42:46.616Z,100013.80
2023-04-02T07:47:45.799Z,100012.00
2023-04-02T07:52:46.348Z,100015.00
2023-04-02T07:57:51.782Z,100018.60
2023-04-02T08:02:51.805Z,100029.80
2023-04-02T08:07:57.779Z,100036.80
2023-04-02T08:12:56.865Z,100036.40
2023-04-02T08:17:56.469Z,100039.40
2023-04-02T08:22:59.135Z,100049.80
2023-04-02T08:27:58.197Z,100059.60
2023-04-02T08:32:57.075Z,100064.20
2023-04-02T08:37:55.651Z,100070.40
2023-04-02T08:43:21.777Z,100078.40
2023-04-02T08:48:23.604Z,100075.80
2023-04-02T08:53:27.068Z,100092.80
2023-04-02T08:58:39.617Z,100101.80
2023-04-02T09:03:44.121Z,100110.20
2023-04-02T09:08:48.029Z,100116.40
2023-04-02T09:13:51.909Z,100124.40
2023-04-02T09:18:54.070Z,100128.60
2023-04-02T09:23:53.778Z,100137.00
2023-04-02T09:28:54.222Z,100146.40
2023-04-02T09:33:55.048Z,100144.00
2023-04-02T09:39:07.058Z,100144.60
2023-04-02T09:44:31.976Z,100149.80
2023-04-02T09:49:35.525Z,100147.80
2023-04-02T09:54:34.298Z,100149.80
2023-04-02T09:59:33.752Z,100160.00
2023-04-02T10:04:44.468Z,100159.60
2023-04-02T10:09:43.715Z,100163.80
2023-04-02T10:14:51.346Z,100172.20
2023-04-02T10:19:55.479Z,100186.60
2023-04-02T10:24:55.084Z,100203.00
2023-04-02T10:30:14.805Z,100207.20
2023-04-02T10:35:28.729Z,100215.60
2023-04-02T10:40:36.657Z,100225.80
2023-04-02T10:45:47.358Z,100217.40
2023-04-02T10:50:56.332Z,100223.00
2023-04-02T10:56:01.518Z,100239.60
2023-04-02T11:01:08.448Z,100245.60
2023-04-02T11:06:17.575Z,100254.40
2023-04-02T11:11:22.711Z,100261.80
2023-04-02T11:16:22.466Z,100267.20
2023-04-02T11:21:57.131Z,100282.80
2023-04-02T11:27:07.860Z,100289.60
2023-04-02T11:32:42.779Z,100288.80
2023-04-02T11:37:45.723Z,100287.20
2023-04-02T11:42:47.415Z,100301.60
2023-04-02T11:48:24.409Z,100309.40
2023-04-02T11:53:31.825Z,100318.80
2023-04-02T11:58:47.356Z,100318.00
2023-04-02T12:04:15.985Z,100326.00
2023-04-02T12:09:24.696Z,100337.60
2023-04-02T12:14:50.132Z,100347.40
2023-04-02T12:19:55.769Z,100356.40
2023-04-02T12:24:59.743Z,100365.20
2023-04-02T12:30:16.180Z,100363.00
2023-04-02T12:35:36.103Z,100366.20
2023-04-02T12:40:35.232Z,100363.20
2023-04-02T12:45:37.517Z,100365.40
2023-04-02T12:50:37.600Z,100367.40
2023-04-02T12:55:38.583Z,100367.00
2023-04-02T13:00:42.186Z,100374.00
2023-04-02T13:05:46.002Z,100376.60
2023-04-02T13:10:46.319Z,100395.60
2023-04-02T13:15:46.403Z,100407.60
2023-04-02T13:20:56.443Z,100404.80
2023-04-02T13:25:56.311Z,100412.40
2023-04-02T13:30:55.811Z,100425.40
2023-04-02T13:35:55.316Z,100422.40
2023-04-02T13:40:54.912Z,100432.00
2023-04-02T13:46:00.173Z,100441.80
2023-04-02T13:50:59.728Z,100433.80
2023-04-02T13:55:59.680Z,100445.00
2023-04-02T14:00:59.099Z,100446.80
2023-04-02T14:06:09.698Z,100449.40
2023-04-02T14:11:29.743Z,100449.80
2023-04-02T14:16:59.040Z,100456.00
2023-04-02T14:22:18.320Z,100459.60
2023-04-02T14:27:32.990Z,100465.60
2023-04-02T14:32:45.304Z,100478.00
2023-04-02T14:37:58.019Z,100491.60
2023-04-02T14:43:07.069Z,100498.20
2023-04-02T14:48:14.947Z,100501.40
2023-04-02T14:53:23.981Z,100501.80
2023-04-02T14:58:32.472Z,100508.60
2023-04-02T15:03:38.869Z,100518.40
2023-04-02T15:08:52.267Z,100524.40
2023-04-02T15:14:03.975Z,100531.80
2023-04-02T15:19:05.844Z,100543.20
2023-04-02T15:24:17.008Z,100548.00
2023-04-02T15:29:41.363Z,100546.80
2023-04-02T15:34:49.219Z,100563.60
2023-04-02T15:40:01.328Z,100564.80
2023-04-02T15:45:31.197Z,100572.20
2023-04-02T15:50:48.302Z,100583.40
2023-04-02T15:55:56.378Z,100585.00
2023-04-02T16:01:13.458Z,100597.00
2023-04-02T16:06:32.627Z,100607.20
2023-04-02T16:11:32.075Z,100615.20
2023-04-02T16:16:37.544Z,100622.40
2023-04-02T16:21:44.420Z,100629.40
2023-04-02T16:27:00.909Z,100639.40
2023-04-02T16:32:12.216Z,100645.40
2023-04-02T16:37:24.251Z,100650.20
2023-04-02T16:42:36.797Z,100651.00
2023-04-02T16:47:57.980Z,100660.20
2023-04-02T16:53:11.709Z,100666.40
2023-04-02T16:58:31.518Z,100677.00
2023-04-02T17:03:57.498Z,100685.80
2023-04-02T17:09:09.038Z,100691.00
2023-04-02T17:14:18.265Z,100695.00
2023-04-02T17:19:21.683Z,100692.20
2023-04-02T17:24:28.116Z,100693.40
2023-04-02T17:29:36.253Z,100704.00
2023-04-02T17:34:35.351Z,100716.80
2023-04-02T17:39:47.507Z,100721.40
2023-04-02T17:45:06.883Z,100730.40
2023-04-02T17:50:35.018Z,100741.60
2023-04-02T17:55:50.382Z,100750.80
2023-04-02T18:01:08.140Z,100756.40
2023-04-02T18:06:15.721Z,100769.40
2023-04-02T18:11:31.156Z,100771.40
2023-04-02T18:16:49.117Z,100768.80
2023-04-02T18:22:00.277Z,100761.80
2023-04-02T18:27:20.254Z,100762.80
2023-04-02T18:32:43.972Z,100766.60
2023-04-02T18:38:02.222Z,100767.80
2023-04-02T18:43:12.624Z,100776.20
2023-04-02T18:48:29.812Z,100785.00
2023-04-02T18:53:35.109Z,100790.00
2023-04-02T18:58:52.144Z,100806.00
2023-04-02T19:03:59.730Z,100808.20
2023-04-02T19:09:08.104Z,100804.20
2023-04-02T19:14:15.686Z,100815.80
2023-04-02T19:19:22.887Z,100825.40
2023-04-02T19:24:47.669Z,100819.60
2023-04-02T19:30:05.399Z,100823.40
2023-04-02T19:35:16.834Z,100821.00
2023-04-02T19:40:30.925Z,100823.60
2023-04-02T19:45:43.223Z,100827.80
2023-04-02T19:50:42.653Z,100829.40
2023-04-02T19:55:42.679Z,100830.80
2023-04-02T20:00:42.119Z,100831.40
2023-04-02T20:05:41.067Z,100837.80
2023-04-02T20:10:40.184Z,100834.20
2023-04-02T20:15:40.289Z,100832.20
2023-04-02T20:20:39.568Z,100837.60
2023-04-02T20:25:39.078Z,100843.40
2023-04-02T20:30:38.347Z,100845.60
2023-04-02T20:35:38.072Z,100852.00
2023-04-02T20:40:40.105Z,100848.60
2023-04-02T20:45:40.095Z,100857.80
2023-04-02T20:50:40.416Z,100861.80
2023-04-02T20:55:39.864Z,100861.20
2023-04-02T21:00:42.298Z,100865.20
2023-04-02T21:05:48.934Z,100866.20
2023-04-02T21:10:47.584Z,100874.80
2023-04-02T21:15:46.978Z,100872.40
2023-04-02T21:20:45.557Z,100879.20
2023-04-02T21:25:45.301Z,100881.40
2023-04-02T21:30:44.296Z,100881.00
2023-04-02T21:35:43.619Z,100881.00
2023-04-02T21:40:44.099Z,100882.60
2023-04-02T21:45:43.137Z,100890.40
2023-04-02T21:50:44.603Z,100895.00
2023-04-02T21:55:45.410Z,100897.00
2023-04-02T22:00:45.014Z,100899.20
2023-04-02T22:05:44.295Z,100904.80
2023-04-02T22:10:43.450Z,100914.40
2023-04-02T22:15:43.514Z,100914.60
2023-04-02T22:20:44.225Z,100924.60
2023-04-02T22:25:43.043Z,100930.40
2023-04-02T22:30:42.346Z,100930.60
2023-04-02T22:35:41.617Z,100935.80
2023-04-02T22:40:41.019Z,100941.20
2023-04-02T22:45:39.655Z,100938.00
2023-04-02T22:50:38.900Z,100952.00
2023-04-02T22:55:38.723Z,100946.60
2023-04-02T23:00:39.396Z,100950.00
2023-04-02T23:05:42.635Z,100949.00
2023-04-02T23:10:42.195Z,100953.00
2023-04-02T23:15:41.531Z,100956.20
2023-04-02T23:20:41.794Z,100957.20
2023-04-02T23:25:43.280Z,100955.00
2023-04-02T23:30:43.257Z,100952.60
2023-04-02T23:35:42.403Z,100958.60
2023-04-02T23:40:44.942Z,100963.80
2023-04-02T23:45:49.461Z,100967.80
2023-04-02T23:50:49.304Z,100962.40
2023-04-02T23:55:49.099Z,100970.60
